RSC60JX GCXO-GCLP
Flight info
| Callsign | RSC60JX |
|---|---|
| Flight time | 0h 23m |
| Altitude | 9000 |
| Route | LALTO |
| Aircraft | AT76/M-SDFGRY/LB1 |
Departure
| Time | 2026-04-30 19:33 |
|---|---|
| Airport | Tenerife Norte-Ciudad de La Laguna Airport (GCXO) |
Arrival
| Time | 2026-04-30 19:57 |
|---|---|
| Airport | Gran Canaria Airport (GCLP) |
| Time | Latitude | Longitude | Altitude | Speed | Heading |
|---|---|---|---|---|---|
| 2026-04-30 19:20 | 28.48681 | -16.34664 | 2067 ft | 0 kts | 21° |
| 2026-04-30 19:28 | 28.48675 | -16.34666 | 2068 ft | 4 kts | 21° |
| 2026-04-30 19:28 | 28.48584 | -16.34713 | 2071 ft | 5 kts | 77° |
| 2026-04-30 19:29 | 28.48502 | -16.34519 | 2061 ft | 25 kts | 111° |
| 2026-04-30 19:29 | 28.48441 | -16.34336 | 2053 ft | 24 kts | 108° |
| 2026-04-30 19:30 | 28.48264 | -16.33796 | 2034 ft | 24 kts | 110° |
| 2026-04-30 19:30 | 28.48147 | -16.33559 | 2036 ft | 8 kts | 223° |
| 2026-04-30 19:31 | 28.48138 | -16.33762 | 2041 ft | 10 kts | 278° |
| 2026-04-30 19:31 | 28.48141 | -16.33776 | 2038 ft | 0 kts | 290° |
| 2026-04-30 19:32 | 28.48142 | -16.33777 | 2038 ft | 4 kts | 290° |
| 2026-04-30 19:32 | 28.48222 | -16.34019 | 2046 ft | 61 kts | 290° |
| 2026-04-30 19:33 | 28.48435 | -16.34660 | 2070 ft | 110 kts | 290° |
| 2026-04-30 19:33 | 28.48722 | -16.35575 | 2319 ft | 131 kts | 289° |
| 2026-04-30 19:33 | 28.49029 | -16.36597 | 2800 ft | 138 kts | 288° |
| 2026-04-30 19:33 | 28.49314 | -16.37656 | 3029 ft | 151 kts | 286° |
| 2026-04-30 19:34 | 28.49693 | -16.38881 | 3022 ft | 177 kts | 291° |
| 2026-04-30 19:34 | 28.50015 | -16.39763 | 3112 ft | 186 kts | 293° |
| 2026-04-30 19:34 | 28.51049 | -16.42530 | 3842 ft | 184 kts | 292° |
| 2026-04-30 19:35 | 28.51583 | -16.43798 | 4215 ft | 180 kts | 311° |
| 2026-04-30 19:35 | 28.52693 | -16.44385 | 4552 ft | 183 kts | 359° |
| 2026-04-30 19:35 | 28.53850 | -16.43831 | 4897 ft | 188 kts | 45° |
| 2026-04-30 19:35 | 28.54353 | -16.42478 | 5212 ft | 191 kts | 86° |
| 2026-04-30 19:36 | 28.54282 | -16.40978 | 5472 ft | 192 kts | 108° |
| 2026-04-30 19:36 | 28.53910 | -16.39527 | 5719 ft | 193 kts | 90° |
| 2026-04-30 19:36 | 28.53734 | -16.36485 | 6178 ft | 196 kts | 90° |
| 2026-04-30 19:37 | 28.53794 | -16.34927 | 6461 ft | 199 kts | 88° |
| 2026-04-30 19:37 | 28.53798 | -16.33366 | 6779 ft | 197 kts | 90° |
| 2026-04-30 19:37 | 28.53797 | -16.31807 | 7045 ft | 197 kts | 96° |
| 2026-04-30 19:37 | 28.53684 | -16.30249 | 7298 ft | 199 kts | 93° |
| 2026-04-30 19:38 | 28.53663 | -16.28672 | 7548 ft | 199 kts | 92° |
| 2026-04-30 19:38 | 28.53574 | -16.27100 | 7795 ft | 198 kts | 97° |
| 2026-04-30 19:38 | 28.53117 | -16.25637 | 7991 ft | 198 kts | 121° |
| 2026-04-30 19:38 | 28.52403 | -16.24296 | 8267 ft | 199 kts | 125° |
| 2026-04-30 19:39 | 28.51643 | -16.22978 | 8541 ft | 200 kts | 126° |
| 2026-04-30 19:39 | 28.50887 | -16.21649 | 8819 ft | 201 kts | 125° |
| 2026-04-30 19:39 | 28.50128 | -16.20287 | 8909 ft | 207 kts | 126° |
| 2026-04-30 19:39 | 28.49319 | -16.18877 | 8973 ft | 218 kts | 126° |
| 2026-04-30 19:40 | 28.48489 | -16.17385 | 9006 ft | 228 kts | 124° |
| 2026-04-30 19:40 | 28.47635 | -16.15825 | 9016 ft | 236 kts | 124° |
| 2026-04-30 19:40 | 28.46755 | -16.14213 | 9023 ft | 243 kts | 124° |
| 2026-04-30 19:40 | 28.45856 | -16.12563 | 9025 ft | 248 kts | 124° |
| 2026-04-30 19:41 | 28.44940 | -16.10884 | 9020 ft | 252 kts | 124° |
| 2026-04-30 19:41 | 28.44013 | -16.09187 | 9021 ft | 254 kts | 124° |
| 2026-04-30 19:41 | 28.43077 | -16.07470 | 9019 ft | 256 kts | 124° |
| 2026-04-30 19:41 | 28.42134 | -16.05742 | 9020 ft | 258 kts | 124° |
| 2026-04-30 19:42 | 28.41188 | -16.04010 | 9017 ft | 259 kts | 124° |
| 2026-04-30 19:42 | 28.40238 | -16.02267 | 9013 ft | 260 kts | 124° |
| 2026-04-30 19:42 | 28.39288 | -16.00517 | 9014 ft | 261 kts | 124° |
| 2026-04-30 19:42 | 28.38469 | -15.99011 | 9009 ft | 261 kts | 124° |
| 2026-04-30 19:43 | 28.37511 | -15.97256 | 9010 ft | 262 kts | 124° |
| 2026-04-30 19:43 | 28.36551 | -15.95500 | 9008 ft | 262 kts | 124° |
| 2026-04-30 19:43 | 28.35590 | -15.93743 | 9007 ft | 262 kts | 124° |
| 2026-04-30 19:44 | 28.33670 | -15.90219 | 9002 ft | 263 kts | 124° |
| 2026-04-30 19:44 | 28.32710 | -15.88462 | 9005 ft | 261 kts | 124° |
| 2026-04-30 19:44 | 28.31752 | -15.86708 | 9009 ft | 262 kts | 124° |
| 2026-04-30 19:44 | 28.30788 | -15.84948 | 9002 ft | 263 kts | 124° |
| 2026-04-30 19:45 | 28.29819 | -15.83180 | 9005 ft | 264 kts | 124° |
| 2026-04-30 19:45 | 28.28849 | -15.81410 | 9007 ft | 265 kts | 124° |
| 2026-04-30 19:45 | 28.27877 | -15.79636 | 9005 ft | 265 kts | 124° |
| 2026-04-30 19:45 | 28.26904 | -15.77860 | 8998 ft | 265 kts | 124° |
| 2026-04-30 19:46 | 28.25930 | -15.76081 | 9007 ft | 265 kts | 124° |
| 2026-04-30 19:46 | 28.24956 | -15.74304 | 9001 ft | 265 kts | 124° |
| 2026-04-30 19:46 | 28.23980 | -15.72527 | 9005 ft | 265 kts | 124° |
| 2026-04-30 19:46 | 28.23006 | -15.70751 | 9007 ft | 265 kts | 124° |
| 2026-04-30 19:47 | 28.22030 | -15.68974 | 9004 ft | 265 kts | 124° |
| 2026-04-30 19:47 | 28.21384 | -15.67797 | 8932 ft | 268 kts | 124° |
| 2026-04-30 19:47 | 28.20070 | -15.65409 | 8415 ft | 263 kts | 124° |
| 2026-04-30 19:47 | 28.19110 | -15.63662 | 8041 ft | 259 kts | 123° |
| 2026-04-30 19:48 | 28.18165 | -15.61939 | 7678 ft | 256 kts | 123° |
| 2026-04-30 19:48 | 28.17228 | -15.60237 | 7312 ft | 253 kts | 123° |
| 2026-04-30 19:48 | 28.16303 | -15.58552 | 6956 ft | 251 kts | 123° |
| 2026-04-30 19:48 | 28.15382 | -15.56882 | 6607 ft | 249 kts | 122° |
| 2026-04-30 19:49 | 28.14468 | -15.55224 | 6230 ft | 247 kts | 122° |
| 2026-04-30 19:49 | 28.12657 | -15.51932 | 5489 ft | 242 kts | 122° |
| 2026-04-30 19:49 | 28.11806 | -15.50387 | 5166 ft | 221 kts | 121° |
| 2026-04-30 19:50 | 28.11034 | -15.48981 | 5003 ft | 199 kts | 122° |
| 2026-04-30 19:50 | 28.10334 | -15.47715 | 4919 ft | 182 kts | 121° |
| 2026-04-30 19:50 | 28.09654 | -15.46476 | 4498 ft | 191 kts | 121° |
| 2026-04-30 19:50 | 28.08925 | -15.45117 | 4113 ft | 216 kts | 121° |
| 2026-04-30 19:51 | 28.08099 | -15.43561 | 3760 ft | 244 kts | 121° |
| 2026-04-30 19:51 | 28.07089 | -15.42000 | 3675 ft | 249 kts | 139° |
| 2026-04-30 19:51 | 28.05613 | -15.40956 | 3633 ft | 253 kts | 151° |
| 2026-04-30 19:51 | 28.04050 | -15.40002 | 3601 ft | 257 kts | 152° |
| 2026-04-30 19:52 | 28.02456 | -15.39063 | 3593 ft | 259 kts | 153° |
| 2026-04-30 19:52 | 28.00851 | -15.38137 | 3586 ft | 252 kts | 153° |
| 2026-04-30 19:52 | 27.99601 | -15.37432 | 3454 ft | 223 kts | 154° |
| 2026-04-30 19:52 | 27.98277 | -15.36684 | 3195 ft | 203 kts | 153° |
| 2026-04-30 19:53 | 27.97095 | -15.36011 | 3086 ft | 181 kts | 153° |
| 2026-04-30 19:53 | 27.96028 | -15.35406 | 3037 ft | 161 kts | 154° |
| 2026-04-30 19:53 | 27.95058 | -15.34862 | 2796 ft | 160 kts | 153° |
| 2026-04-30 19:53 | 27.94001 | -15.34422 | 2409 ft | 165 kts | 178° |
| 2026-04-30 19:54 | 27.92886 | -15.34715 | 2041 ft | 166 kts | 198° |
| 2026-04-30 19:54 | 27.91792 | -15.35134 | 1666 ft | 166 kts | 199° |
| 2026-04-30 19:54 | 27.90715 | -15.35576 | 1314 ft | 163 kts | 200° |
| 2026-04-30 19:54 | 27.89678 | -15.36021 | 1133 ft | 155 kts | 200° |
| 2026-04-30 19:55 | 27.88840 | -15.36650 | 1048 ft | 141 kts | 239° |
| 2026-04-30 19:55 | 27.88807 | -15.37658 | 1018 ft | 122 kts | 290° |
| 2026-04-30 19:55 | 27.89095 | -15.38496 | 885 ft | 112 kts | 293° |
| 2026-04-30 19:55 | 27.89461 | -15.39362 | 738 ft | 133 kts | 296° |
| 2026-04-30 19:56 | 27.90081 | -15.40034 | 691 ft | 119 kts | 2° |
| 2026-04-30 19:56 | 27.90851 | -15.39737 | 481 ft | 121 kts | 35° |
| 2026-04-30 19:56 | 27.91633 | -15.39340 | 221 ft | 127 kts | 22° |
| 2026-04-30 19:56 | 27.92434 | -15.38994 | 69 ft | 116 kts | 24° |
| 2026-04-30 19:57 | 27.92948 | -15.38763 | 55 ft | 46 kts | 21° |
| 2026-04-30 19:57 | 27.93334 | -15.38593 | 54 ft | 76 kts | 21° |
| 2026-04-30 19:57 | 27.93743 | -15.38433 | 58 ft | 50 kts | 8° |
| 2026-04-30 19:57 | 27.93941 | -15.38441 | 65 ft | 11 kts | 351° |
| 2026-04-30 19:58 | 27.93964 | -15.38445 | 66 ft | 2 kts | 350° |
| 2026-04-30 19:58 | 27.93985 | -15.38448 | 67 ft | 4 kts | 354° |
| 2026-04-30 19:58 | 27.94022 | -15.38458 | 68 ft | 6 kts | 328° |
| 2026-04-30 19:58 | 27.94050 | -15.38499 | 67 ft | 6 kts | 288° |
| 2026-04-30 19:59 | 27.94067 | -15.38548 | 71 ft | 7 kts | 292° |
| 2026-04-30 19:59 | 27.94087 | -15.38600 | 72 ft | 7 kts | 297° |
| 2026-04-30 19:59 | 27.94110 | -15.38666 | 82 ft | 3 kts | 290° |
| 2026-04-30 20:00 | 27.94116 | -15.38686 | 81 ft | 0 kts | 291° |